Babcock, Illinois
Current Conditions -  °F | °C
As of 6:52 PM on Saturday 25 Oct 2014 (Local Time) from KMLI Reporting Station
Clear Clear  
Wind Chill: 62°   Ceiling: Unl
Heat Index: 62°   Visibility: 10mi
Dew Point: 34°   Wind: 7mph
Humidity: 35%   Direction: 310°NW
Pressure: 30"   Gusts: NA
Location:  41.5228°N, 90.3951°W
Report Text: KMLI 252352Z 31006KT 10SM CLR 17/01 A3000 RMK AO2 SLP160 T01670011 10228 20167 56000 $
Loading
Personal Weather Stations






























Interactive Weather Map New forecast layout! Learn more

10-Day Weather Forecast

Advertisements
Track Severe Weather on mobile